sensor_id;sensor_type;location;lat;lon;timestamp;temperature;humidity
4293;DHT22;2160;51.172;6.808;2023-06-04T04:00:51;15.80;64.30
4293;DHT22;2160;51.172;6.808;2023-06-04T04:03:18;15.80;65.30
4293;DHT22;2160;51.172;6.808;2023-06-04T04:05:46;15.70;64.40
4293;DHT22;2160;51.172;6.808;2023-06-04T04:08:13;15.70;64.90
4293;DHT22;2160;51.172;6.808;2023-06-04T04:10:44;15.80;65.40
4293;DHT22;2160;51.172;6.808;2023-06-04T04:13:11;15.80;65.70
4293;DHT22;2160;51.172;6.808;2023-06-04T04:15:40;15.80;65.90
4293;DHT22;2160;51.172;6.808;2023-06-04T04:18:08;15.80;66.10
4293;DHT22;2160;51.172;6.808;2023-06-04T04:20:37;15.90;66.30
4293;DHT22;2160;51.172;6.808;2023-06-04T04:23:07;15.90;67.10
4293;DHT22;2160;51.172;6.808;2023-06-04T04:25:35;15.90;66.80
4293;DHT22;2160;51.172;6.808;2023-06-04T04:28:04;15.90;68.10
4293;DHT22;2160;51.172;6.808;2023-06-04T04:30:33;15.80;67.20
4293;DHT22;2160;51.172;6.808;2023-06-04T04:33:02;15.90;68.20
4293;DHT22;2160;51.172;6.808;2023-06-04T04:35:38;15.90;68.30
4293;DHT22;2160;51.172;6.808;2023-06-04T04:38:05;15.90;68.50
4293;DHT22;2160;51.172;6.808;2023-06-04T04:40:39;15.90;69.40
4293;DHT22;2160;51.172;6.808;2023-06-04T04:43:08;16.00;69.20
4293;DHT22;2160;51.172;6.808;2023-06-04T04:45:36;16.00;66.60
4293;DHT22;2160;51.172;6.808;2023-06-04T04:48:05;16.00;67.30
4293;DHT22;2160;51.172;6.808;2023-06-04T04:50:32;16.00;67.70
4293;DHT22;2160;51.172;6.808;2023-06-04T04:53:02;16.10;69.50
4293;DHT22;2160;51.172;6.808;2023-06-04T04:55:30;16.30;69.90
4293;DHT22;2160;51.172;6.808;2023-06-04T04:57:57;16.30;69.00
4293;DHT22;2160;51.172;6.808;2023-06-04T05:00:24;16.30;70.30
4293;DHT22;2160;51.172;6.808;2023-06-04T05:02:54;16.30;69.50
4293;DHT22;2160;51.172;6.808;2023-06-04T05:05:21;16.40;69.70
4293;DHT22;2160;51.172;6.808;2023-06-04T05:07:49;16.40;69.30
4293;DHT22;2160;51.172;6.808;2023-06-04T05:10:20;16.40;69.70
4293;DHT22;2160;51.172;6.808;2023-06-04T05:12:51;16.60;69.40
4293;DHT22;2160;51.172;6.808;2023-06-04T05:15:19;16.60;69.20
4293;DHT22;2160;51.172;6.808;2023-06-04T05:17:47;16.70;69.70
4293;DHT22;2160;51.172;6.808;2023-06-04T05:20:15;16.70;72.00
4293;DHT22;2160;51.172;6.808;2023-06-04T05:22:44;16.70;70.50
4293;DHT22;2160;51.172;6.808;2023-06-04T05:25:11;16.90;70.30
4293;DHT22;2160;51.172;6.808;2023-06-04T05:27:40;16.80;68.50
4293;DHT22;2160;51.172;6.808;2023-06-04T05:30:11;16.90;67.30
4293;DHT22;2160;51.172;6.808;2023-06-04T05:32:38;16.90;66.70
4293;DHT22;2160;51.172;6.808;2023-06-04T05:35:08;17.00;66.00
4293;DHT22;2160;51.172;6.808;2023-06-04T05:37:37;16.90;65.80
4293;DHT22;2160;51.172;6.808;2023-06-04T05:40:08;17.00;68.50
4293;DHT22;2160;51.172;6.808;2023-06-04T05:42:36;17.20;68.30
4293;DHT22;2160;51.172;6.808;2023-06-04T05:45:06;17.20;63.50
4293;DHT22;2160;51.172;6.808;2023-06-04T05:47:34;17.30;65.40
4293;DHT22;2160;51.172;6.808;2023-06-04T05:50:03;17.30;64.70
4293;DHT22;2160;51.172;6.808;2023-06-04T05:52:32;17.40;63.60
4293;DHT22;2160;51.172;6.808;2023-06-04T05:55:00;17.50;65.80
4293;DHT22;2160;51.172;6.808;2023-06-04T05:57:27;17.60;66.30
4293;DHT22;2160;51.172;6.808;2023-06-04T05:59:54;17.70;65.60
4293;DHT22;2160;51.172;6.808;2023-06-04T06:02:22;17.70;63.30
4293;DHT22;2160;51.172;6.808;2023-06-04T06:04:49;17.80;64.20
4293;DHT22;2160;51.172;6.808;2023-06-04T06:07:16;17.90;59.50
4293;DHT22;2160;51.172;6.808;2023-06-04T06:09:45;18.20;61.00
4293;DHT22;2160;51.172;6.808;2023-06-04T06:12:12;18.40;63.30
4293;DHT22;2160;51.172;6.808;2023-06-04T06:14:41;18.30;59.20
4293;DHT22;2160;51.172;6.808;2023-06-04T06:17:08;18.40;62.90
4293;DHT22;2160;51.172;6.808;2023-06-04T06:19:37;18.50;58.30
4293;DHT22;2160;51.172;6.808;2023-06-04T06:22:04;18.60;56.90
4293;DHT22;2160;51.172;6.808;2023-06-04T06:24:32;18.80;56.60
4293;DHT22;2160;51.172;6.808;2023-06-04T06:26:59;18.80;57.30
4293;DHT22;2160;51.172;6.808;2023-06-04T06:29:26;18.90;56.80
4293;DHT22;2160;51.172;6.808;2023-06-04T06:31:53;19.10;57.70
4293;DHT22;2160;51.172;6.808;2023-06-04T06:34:20;19.20;58.30
4293;DHT22;2160;51.172;6.808;2023-06-04T06:36:48;19.20;59.80
4293;DHT22;2160;51.172;6.808;2023-06-04T06:39:15;19.30;58.20
4293;DHT22;2160;51.172;6.808;2023-06-04T06:41:42;19.40;56.80
4293;DHT22;2160;51.172;6.808;2023-06-04T06:44:13;19.50;55.90
4293;DHT22;2160;51.172;6.808;2023-06-04T06:46:40;19.70;56.80
4293;DHT22;2160;51.172;6.808;2023-06-04T06:49:07;19.70;58.40
4293;DHT22;2160;51.172;6.808;2023-06-04T06:51:34;19.80;56.30
4293;DHT22;2160;51.172;6.808;2023-06-04T06:54:03;19.80;54.80
4293;DHT22;2160;51.172;6.808;2023-06-04T06:56:30;19.80;53.30
4293;DHT22;2160;51.172;6.808;2023-06-04T06:58:57;19.80;54.30
4293;DHT22;2160;51.172;6.808;2023-06-04T07:01:24;19.90;56.20
4293;DHT22;2160;51.172;6.808;2023-06-04T07:03:51;20.00;53.80
4293;DHT22;2160;51.172;6.808;2023-06-04T07:06:18;20.20;54.40
4293;DHT22;2160;51.172;6.808;2023-06-04T07:08:45;20.30;54.60
4293;DHT22;2160;51.172;6.808;2023-06-04T07:11:15;20.40;53.80
4293;DHT22;2160;51.172;6.808;2023-06-04T07:13:42;20.50;56.80
4293;DHT22;2160;51.172;6.808;2023-06-04T07:16:09;20.60;55.40
4293;DHT22;2160;51.172;6.808;2023-06-04T07:18:36;20.60;53.90
4293;DHT22;2160;51.172;6.808;2023-06-04T07:21:03;20.80;53.60
4293;DHT22;2160;51.172;6.808;2023-06-04T07:23:31;20.70;53.70
4293;DHT22;2160;51.172;6.808;2023-06-04T07:25:57;20.80;54.00
4293;DHT22;2160;51.172;6.808;2023-06-04T07:28:26;21.00;54.60
4293;DHT22;2160;51.172;6.808;2023-06-04T07:30:53;21.10;54.80
4293;DHT22;2160;51.172;6.808;2023-06-04T07:33:20;21.20;53.80
4293;DHT22;2160;51.172;6.808;2023-06-04T07:35:47;21.30;52.10
4293;DHT22;2160;51.172;6.808;2023-06-04T07:38:14;21.30;53.90
4293;DHT22;2160;51.172;6.808;2023-06-04T07:40:41;21.40;53.50
4293;DHT22;2160;51.172;6.808;2023-06-04T07:43:08;21.40;51.60
4293;DHT22;2160;51.172;6.808;2023-06-04T07:45:37;21.40;54.70
4293;DHT22;2160;51.172;6.808;2023-06-04T07:48:04;21.50;52.10
4293;DHT22;2160;51.172;6.808;2023-06-04T07:50:31;21.60;52.40
4293;DHT22;2160;51.172;6.808;2023-06-04T07:52:58;21.60;50.60
4293;DHT22;2160;51.172;6.808;2023-06-04T07:55:25;21.70;49.60
4293;DHT22;2160;51.172;6.808;2023-06-04T07:57:52;21.80;49.90
4293;DHT22;2160;51.172;6.808;2023-06-04T08:00:19;21.90;50.40
4293;DHT22;2160;51.172;6.808;2023-06-04T08:02:48;22.00;50.90
4293;DHT22;2160;51.172;6.808;2023-06-04T08:05:16;22.10;50.70
4293;DHT22;2160;51.172;6.808;2023-06-04T08:07:43;22.10;48.90
4293;DHT22;2160;51.172;6.808;2023-06-04T08:10:10;22.30;50.30
4293;DHT22;2160;51.172;6.808;2023-06-04T08:12:37;22.30;50.40
4293;DHT22;2160;51.172;6.808;2023-06-04T08:15:05;22.30;48.70
4293;DHT22;2160;51.172;6.808;2023-06-04T08:17:33;22.20;48.50
4293;DHT22;2160;51.172;6.808;2023-06-04T08:20:01;22.30;49.50
4293;DHT22;2160;51.172;6.808;2023-06-04T08:22:32;22.30;48.80
4293;DHT22;2160;51.172;6.808;2023-06-04T08:24:58;22.50;46.70
4293;DHT22;2160;51.172;6.808;2023-06-04T08:27:25;22.50;48.30
4293;DHT22;2160;51.172;6.808;2023-06-04T08:29:53;22.60;45.30
4293;DHT22;2160;51.172;6.808;2023-06-04T08:32:20;22.50;45.00
4293;DHT22;2160;51.172;6.808;2023-06-04T08:34:47;22.60;46.90
4293;DHT22;2160;51.172;6.808;2023-06-04T08:37:18;22.60;45.50
4293;DHT22;2160;51.172;6.808;2023-06-04T08:39:45;22.70;44.90
4293;DHT22;2160;51.172;6.808;2023-06-04T08:42:22;22.80;43.70
4293;DHT22;2160;51.172;6.808;2023-06-04T08:44:54;22.90;46.60
4293;DHT22;2160;51.172;6.808;2023-06-04T08:47:24;22.90;45.80
4293;DHT22;2160;51.172;6.808;2023-06-04T08:49:52;22.90;44.80
4293;DHT22;2160;51.172;6.808;2023-06-04T08:52:23;23.00;43.50
4293;DHT22;2160;51.172;6.808;2023-06-04T08:54:51;23.00;44.50
4293;DHT22;2160;51.172;6.808;2023-06-04T08:57:18;23.10;43.20
4293;DHT22;2160;51.172;6.808;2023-06-04T08:59:45;23.20;44.20
4293;DHT22;2160;51.172;6.808;2023-06-04T09:02:13;23.40;44.30
4293;DHT22;2160;51.172;6.808;2023-06-04T09:04:41;23.50;43.80
4293;DHT22;2160;51.172;6.808;2023-06-04T09:07:08;23.40;41.50
4293;DHT22;2160;51.172;6.808;2023-06-04T09:09:39;23.40;40.40
4293;DHT22;2160;51.172;6.808;2023-06-04T09:12:09;23.50;41.00
4293;DHT22;2160;51.172;6.808;2023-06-04T09:14:37;23.50;42.00
4293;DHT22;2160;51.172;6.808;2023-06-04T09:17:04;23.60;42.30
4293;DHT22;2160;51.172;6.808;2023-06-04T09:19:31;23.60;40.00
4293;DHT22;2160;51.172;6.808;2023-06-04T09:22:00;23.60;41.40
4293;DHT22;2160;51.172;6.808;2023-06-04T09:24:39;23.80;42.80
4293;DHT22;2160;51.172;6.808;2023-06-04T09:27:10;23.80;44.30
4293;DHT22;2160;51.172;6.808;2023-06-04T09:29:38;23.90;42.80
4293;DHT22;2160;51.172;6.808;2023-06-04T09:32:05;24.00;43.30
4293;DHT22;2160;51.172;6.808;2023-06-04T09:34:33;24.00;43.70
4293;DHT22;2160;51.172;6.808;2023-06-04T09:37:00;24.00;42.30
4293;DHT22;2160;51.172;6.808;2023-06-04T09:39:27;24.10;41.10
4293;DHT22;2160;51.172;6.808;2023-06-04T09:42:00;24.10;41.50
4293;DHT22;2160;51.172;6.808;2023-06-04T09:44:28;24.20;41.90
4293;DHT22;2160;51.172;6.808;2023-06-04T09:46:56;24.10;41.70
4293;DHT22;2160;51.172;6.808;2023-06-04T09:49:23;24.10;39.40
4293;DHT22;2160;51.172;6.808;2023-06-04T09:51:51;24.20;40.10
4293;DHT22;2160;51.172;6.808;2023-06-04T09:54:18;24.20;41.30
4293;DHT22;2160;51.172;6.808;2023-06-04T09:56:45;24.20;39.80
4293;DHT22;2160;51.172;6.808;2023-06-04T09:59:14;24.30;39.70
4293;DHT22;2160;51.172;6.808;2023-06-04T10:01:41;24.40;41.10
4293;DHT22;2160;51.172;6.808;2023-06-04T10:04:09;24.30;43.40
4293;DHT22;2160;51.172;6.808;2023-06-04T10:06:39;24.20;43.20
4293;DHT22;2160;51.172;6.808;2023-06-04T10:09:07;24.40;41.20
4293;DHT22;2160;51.172;6.808;2023-06-04T10:11:36;24.50;40.90
4293;DHT22;2160;51.172;6.808;2023-06-04T10:14:10;24.70;39.70
4293;DHT22;2160;51.172;6.808;2023-06-04T10:16:40;24.80;39.10
4293;DHT22;2160;51.172;6.808;2023-06-04T10:19:07;24.80;40.60
4293;DHT22;2160;51.172;6.808;2023-06-04T10:21:35;24.70;37.90
4293;DHT22;2160;51.172;6.808;2023-06-04T10:24:03;24.70;38.20
4293;DHT22;2160;51.172;6.808;2023-06-04T10:26:32;24.80;41.20
4293;DHT22;2160;51.172;6.808;2023-06-04T10:29:01;24.80;42.30
4293;DHT22;2160;51.172;6.808;2023-06-04T10:31:28;24.90;40.90
4293;DHT22;2160;51.172;6.808;2023-06-04T10:33:57;25.10;40.00
4293;DHT22;2160;51.172;6.808;2023-06-04T10:36:24;25.20;40.20
4293;DHT22;2160;51.172;6.808;2023-06-04T10:38:52;25.30;39.00
4293;DHT22;2160;51.172;6.808;2023-06-04T10:41:21;25.40;41.80
4293;DHT22;2160;51.172;6.808;2023-06-04T10:43:49;25.40;39.70
4293;DHT22;2160;51.172;6.808;2023-06-04T10:46:17;25.50;37.80
4293;DHT22;2160;51.172;6.808;2023-06-04T10:48:49;25.60;40.30
4293;DHT22;2160;51.172;6.808;2023-06-04T10:51:29;25.70;37.80
4293;DHT22;2160;51.172;6.808;2023-06-04T10:53:56;25.80;37.60
4293;DHT22;2160;51.172;6.808;2023-06-04T10:56:26;25.70;36.90
4293;DHT22;2160;51.172;6.808;2023-06-04T10:58:54;25.70;38.00
4293;DHT22;2160;51.172;6.808;2023-06-04T11:01:24;25.80;40.80
4293;DHT22;2160;51.172;6.808;2023-06-04T11:03:52;25.90;38.50
4293;DHT22;2160;51.172;6.808;2023-06-04T11:06:20;25.90;39.00
4293;DHT22;2160;51.172;6.808;2023-06-04T11:08:48;26.20;39.70
4293;DHT22;2160;51.172;6.808;2023-06-04T11:11:16;26.10;36.10
4293;DHT22;2160;51.172;6.808;2023-06-04T11:13:43;26.00;38.40
4293;DHT22;2160;51.172;6.808;2023-06-04T11:16:17;25.90;38.60
4293;DHT22;2160;51.172;6.808;2023-06-04T11:18:54;26.10;38.90
4293;DHT22;2160;51.172;6.808;2023-06-04T11:21:23;26.20;37.80
4293;DHT22;2160;51.172;6.808;2023-06-04T11:23:55;26.40;38.10
4293;DHT22;2160;51.172;6.808;2023-06-04T11:26:22;26.40;37.70
4293;DHT22;2160;51.172;6.808;2023-06-04T11:28:52;26.50;35.20
4293;DHT22;2160;51.172;6.808;2023-06-04T11:31:19;26.70;36.20
4293;DHT22;2160;51.172;6.808;2023-06-04T11:33:47;26.80;38.20
4293;DHT22;2160;51.172;6.808;2023-06-04T11:36:26;26.80;36.50
4293;DHT22;2160;51.172;6.808;2023-06-04T11:38:57;26.80;37.30
4293;DHT22;2160;51.172;6.808;2023-06-04T11:41:24;26.90;36.40
4293;DHT22;2160;51.172;6.808;2023-06-04T11:43:53;27.00;41.00
4293;DHT22;2160;51.172;6.808;2023-06-04T11:46:22;27.10;39.90
4293;DHT22;2160;51.172;6.808;2023-06-04T11:48:50;27.20;37.30
4293;DHT22;2160;51.172;6.808;2023-06-04T11:51:19;27.20;35.30
4293;DHT22;2160;51.172;6.808;2023-06-04T11:53:48;27.20;35.30
4293;DHT22;2160;51.172;6.808;2023-06-04T11:56:15;27.20;34.20
4293;DHT22;2160;51.172;6.808;2023-06-04T11:58:43;27.20;37.40
4293;DHT22;2160;51.172;6.808;2023-06-04T12:01:12;27.20;34.80
4293;DHT22;2160;51.172;6.808;2023-06-04T12:03:40;27.20;34.90
4293;DHT22;2160;51.172;6.808;2023-06-04T12:06:12;27.30;34.90
4293;DHT22;2160;51.172;6.808;2023-06-04T12:08:51;27.40;35.00
4293;DHT22;2160;51.172;6.808;2023-06-04T12:11:29;27.60;36.10
4293;DHT22;2160;51.172;6.808;2023-06-04T12:13:59;27.60;36.80
4293;DHT22;2160;51.172;6.808;2023-06-04T12:16:27;27.60;35.30
4293;DHT22;2160;51.172;6.808;2023-06-04T12:19:05;27.60;34.50
4293;DHT22;2160;51.172;6.808;2023-06-04T12:21:33;27.70;32.80
4293;DHT22;2160;51.172;6.808;2023-06-04T12:24:09;27.70;33.70
4293;DHT22;2160;51.172;6.808;2023-06-04T12:26:36;27.70;35.20
4293;DHT22;2160;51.172;6.808;2023-06-04T12:29:10;27.50;31.60
4293;DHT22;2160;51.172;6.808;2023-06-04T12:31:38;27.30;30.30
4293;DHT22;2160;51.172;6.808;2023-06-04T12:34:05;27.30;30.00
4293;DHT22;2160;51.172;6.808;2023-06-04T12:36:32;27.40;30.00
4293;DHT22;2160;51.172;6.808;2023-06-04T12:39:01;27.30;30.40
4293;DHT22;2160;51.172;6.808;2023-06-04T12:41:31;27.50;30.60
4293;DHT22;2160;51.172;6.808;2023-06-04T12:43:59;27.70;32.50
4293;DHT22;2160;51.172;6.808;2023-06-04T12:46:27;27.60;31.90
4293;DHT22;2160;51.172;6.808;2023-06-04T12:48:54;27.70;30.80
4293;DHT22;2160;51.172;6.808;2023-06-04T12:51:21;27.60;29.40
4293;DHT22;2160;51.172;6.808;2023-06-04T12:53:49;27.70;30.20
4293;DHT22;2160;51.172;6.808;2023-06-04T12:56:16;27.60;29.40
4293;DHT22;2160;51.172;6.808;2023-06-04T12:58:45;27.60;29.50
4293;DHT22;2160;51.172;6.808;2023-06-04T13:01:12;27.60;29.70
4293;DHT22;2160;51.172;6.808;2023-06-04T13:03:40;27.60;29.20
4293;DHT22;2160;51.172;6.808;2023-06-04T13:06:07;27.80;28.60
4293;DHT22;2160;51.172;6.808;2023-06-04T13:08:34;27.70;30.90
4293;DHT22;2160;51.172;6.808;2023-06-04T13:11:01;27.60;28.90
4293;DHT22;2160;51.172;6.808;2023-06-04T13:13:28;27.60;28.70
4293;DHT22;2160;51.172;6.808;2023-06-04T13:15:57;27.80;30.70
4293;DHT22;2160;51.172;6.808;2023-06-04T13:18:24;28.00;30.30
4293;DHT22;2160;51.172;6.808;2023-06-04T13:20:51;28.20;30.30
4293;DHT22;2160;51.172;6.808;2023-06-04T13:23:18;28.10;30.50
4293;DHT22;2160;51.172;6.808;2023-06-04T13:25:45;28.00;29.70
4293;DHT22;2160;51.172;6.808;2023-06-04T13:28:12;28.10;31.60
4293;DHT22;2160;51.172;6.808;2023-06-04T13:30:39;28.20;29.90
4293;DHT22;2160;51.172;6.808;2023-06-04T13:33:08;28.20;28.50
4293;DHT22;2160;51.172;6.808;2023-06-04T13:35:35;28.10;28.40
4293;DHT22;2160;51.172;6.808;2023-06-04T13:38:04;28.20;28.90
4293;DHT22;2160;51.172;6.808;2023-06-04T13:40:31;28.30;29.70
4293;DHT22;2160;51.172;6.808;2023-06-04T13:42:58;28.30;30.10
4293;DHT22;2160;51.172;6.808;2023-06-04T13:45:25;28.30;29.30
4293;DHT22;2160;51.172;6.808;2023-06-04T13:47:52;28.20;29.10
4293;DHT22;2160;51.172;6.808;2023-06-04T13:50:20;28.00;27.50
4293;DHT22;2160;51.172;6.808;2023-06-04T13:52:47;27.80;27.80
4293;DHT22;2160;51.172;6.808;2023-06-04T13:55:14;27.70;28.10
4293;DHT22;2160;51.172;6.808;2023-06-04T13:57:41;27.90;28.70
4293;DHT22;2160;51.172;6.808;2023-06-04T14:00:09;28.10;29.50
4293;DHT22;2160;51.172;6.808;2023-06-04T14:02:39;28.00;30.30
4293;DHT22;2160;51.172;6.808;2023-06-04T14:05:06;28.20;28.80
4293;DHT22;2160;51.172;6.808;2023-06-04T14:07:34;28.30;28.20
4293;DHT22;2160;51.172;6.808;2023-06-04T14:10:01;28.30;30.90
4293;DHT22;2160;51.172;6.808;2023-06-04T14:12:28;28.30;30.80
4293;DHT22;2160;51.172;6.808;2023-06-04T14:14:56;28.50;28.50
4293;DHT22;2160;51.172;6.808;2023-06-04T14:17:23;28.70;28.70
4293;DHT22;2160;51.172;6.808;2023-06-04T14:19:50;28.80;28.60
4293;DHT22;2160;51.172;6.808;2023-06-04T14:22:17;28.80;28.70
4293;DHT22;2160;51.172;6.808;2023-06-04T14:24:45;28.90;27.90
4293;DHT22;2160;51.172;6.808;2023-06-04T14:27:12;28.90;28.40
4293;DHT22;2160;51.172;6.808;2023-06-04T14:29:40;28.90;28.90
4293;DHT22;2160;51.172;6.808;2023-06-04T14:32:07;28.90;28.60
4293;DHT22;2160;51.172;6.808;2023-06-04T14:34:34;28.90;30.90
4293;DHT22;2160;51.172;6.808;2023-06-04T14:37:01;29.00;29.60
4293;DHT22;2160;51.172;6.808;2023-06-04T14:39:28;28.90;30.00
4293;DHT22;2160;51.172;6.808;2023-06-04T14:41:56;28.90;30.80
4293;DHT22;2160;51.172;6.808;2023-06-04T14:44:23;29.00;29.10
4293;DHT22;2160;51.172;6.808;2023-06-04T14:46:50;28.80;28.10
4293;DHT22;2160;51.172;6.808;2023-06-04T14:49:18;28.80;28.40
4293;DHT22;2160;51.172;6.808;2023-06-04T14:51:45;29.00;29.40
4293;DHT22;2160;51.172;6.808;2023-06-04T14:54:13;29.10;29.50
4293;DHT22;2160;51.172;6.808;2023-06-04T14:56:40;28.90;29.40
4293;DHT22;2160;51.172;6.808;2023-06-04T14:59:09;29.00;28.30
4293;DHT22;2160;51.172;6.808;2023-06-04T15:01:38;28.80;30.00
4293;DHT22;2160;51.172;6.808;2023-06-04T15:04:06;28.70;29.20
4293;DHT22;2160;51.172;6.808;2023-06-04T15:06:33;28.80;30.00
4293;DHT22;2160;51.172;6.808;2023-06-04T15:09:00;28.90;29.10
4293;DHT22;2160;51.172;6.808;2023-06-04T15:11:28;28.90;29.30
4293;DHT22;2160;51.172;6.808;2023-06-04T15:13:55;28.90;29.00
4293;DHT22;2160;51.172;6.808;2023-06-04T15:16:23;28.90;29.90
4293;DHT22;2160;51.172;6.808;2023-06-04T15:18:50;28.90;29.10
4293;DHT22;2160;51.172;6.808;2023-06-04T15:21:17;29.00;28.10
4293;DHT22;2160;51.172;6.808;2023-06-04T15:23:44;28.90;28.40
4293;DHT22;2160;51.172;6.808;2023-06-04T15:26:15;28.90;28.90
4293;DHT22;2160;51.172;6.808;2023-06-04T15:28:42;28.80;27.70
4293;DHT22;2160;51.172;6.808;2023-06-04T15:31:09;28.60;29.20
4293;DHT22;2160;51.172;6.808;2023-06-04T15:33:37;28.70;30.70
4293;DHT22;2160;51.172;6.808;2023-06-04T15:36:05;28.90;29.30
4293;DHT22;2160;51.172;6.808;2023-06-04T15:38:32;29.10;29.20
4293;DHT22;2160;51.172;6.808;2023-06-04T15:40:59;29.00;28.90
4293;DHT22;2160;51.172;6.808;2023-06-04T15:43:26;29.00;28.60
4293;DHT22;2160;51.172;6.808;2023-06-04T15:45:53;29.00;28.00
4293;DHT22;2160;51.172;6.808;2023-06-04T15:48:20;28.90;26.70
4293;DHT22;2160;51.172;6.808;2023-06-04T15:50:49;28.80;28.10
4293;DHT22;2160;51.172;6.808;2023-06-04T15:53:16;29.10;27.80
4293;DHT22;2160;51.172;6.808;2023-06-04T15:55:43;29.00;27.20
4293;DHT22;2160;51.172;6.808;2023-06-04T15:58:11;28.90;27.40
4293;DHT22;2160;51.172;6.808;2023-06-04T16:00:38;28.80;27.90
4293;DHT22;2160;51.172;6.808;2023-06-04T16:03:05;28.80;27.90
4293;DHT22;2160;51.172;6.808;2023-06-04T16:05:32;28.80;28.00
4293;DHT22;2160;51.172;6.808;2023-06-04T16:08:00;28.90;27.90
4293;DHT22;2160;51.172;6.808;2023-06-04T16:10:27;28.80;27.20
4293;DHT22;2160;51.172;6.808;2023-06-04T16:12:54;28.70;26.80
4293;DHT22;2160;51.172;6.808;2023-06-04T16:15:21;28.70;26.20
4293;DHT22;2160;51.172;6.808;2023-06-04T16:17:48;28.60;27.20
4293;DHT22;2160;51.172;6.808;2023-06-04T16:20:15;28.50;26.10
4293;DHT22;2160;51.172;6.808;2023-06-04T16:22:42;28.70;27.30
4293;DHT22;2160;51.172;6.808;2023-06-04T16:25:12;28.70;26.70
4293;DHT22;2160;51.172;6.808;2023-06-04T16:27:43;28.60;26.90
4293;DHT22;2160;51.172;6.808;2023-06-04T16:30:11;28.50;26.00
4293;DHT22;2160;51.172;6.808;2023-06-04T16:32:38;28.40;26.50
4293;DHT22;2160;51.172;6.808;2023-06-04T16:35:05;28.50;25.60
4293;DHT22;2160;51.172;6.808;2023-06-04T16:37:35;28.50;25.80
4293;DHT22;2160;51.172;6.808;2023-06-04T16:40:02;28.40;25.50
4293;DHT22;2160;51.172;6.808;2023-06-04T16:42:31;28.50;25.60
4293;DHT22;2160;51.172;6.808;2023-06-04T16:44:58;28.30;24.60
4293;DHT22;2160;51.172;6.808;2023-06-04T16:47:25;28.30;24.80
4293;DHT22;2160;51.172;6.808;2023-06-04T16:49:52;28.30;26.10
4293;DHT22;2160;51.172;6.808;2023-06-04T16:52:20;28.20;25.10
4293;DHT22;2160;51.172;6.808;2023-06-04T16:54:47;28.10;25.00
4293;DHT22;2160;51.172;6.808;2023-06-04T16:57:14;27.80;25.40
4293;DHT22;2160;51.172;6.808;2023-06-04T16:59:46;27.70;24.90
4293;DHT22;2160;51.172;6.808;2023-06-04T17:02:13;27.80;24.70
4293;DHT22;2160;51.172;6.808;2023-06-04T17:04:41;27.80;24.50
4293;DHT22;2160;51.172;6.808;2023-06-04T17:07:08;27.70;25.20
4293;DHT22;2160;51.172;6.808;2023-06-04T17:09:35;27.60;25.10
4293;DHT22;2160;51.172;6.808;2023-06-04T17:12:03;27.70;28.30
4293;DHT22;2160;51.172;6.808;2023-06-04T17:14:30;27.70;28.00
4293;DHT22;2160;51.172;6.808;2023-06-04T17:16:58;27.60;26.80
4293;DHT22;2160;51.172;6.808;2023-06-04T17:19:25;27.50;26.60
4293;DHT22;2160;51.172;6.808;2023-06-04T17:21:52;27.50;26.60
4293;DHT22;2160;51.172;6.808;2023-06-04T17:24:19;27.50;27.00
4293;DHT22;2160;51.172;6.808;2023-06-04T17:26:46;27.70;27.90
4293;DHT22;2160;51.172;6.808;2023-06-04T17:29:13;27.80;27.90
4293;DHT22;2160;51.172;6.808;2023-06-04T17:31:41;28.00;27.30
4293;DHT22;2160;51.172;6.808;2023-06-04T17:34:09;28.20;27.80
4293;DHT22;2160;51.172;6.808;2023-06-04T17:36:36;28.60;27.50
4293;DHT22;2160;51.172;6.808;2023-06-04T17:39:03;28.50;28.30
4293;DHT22;2160;51.172;6.808;2023-06-04T17:41:30;28.40;28.00
4293;DHT22;2160;51.172;6.808;2023-06-04T17:43:57;28.50;26.80
4293;DHT22;2160;51.172;6.808;2023-06-04T17:46:24;28.60;27.90
4293;DHT22;2160;51.172;6.808;2023-06-04T17:48:51;28.70;28.00
4293;DHT22;2160;51.172;6.808;2023-06-04T17:51:20;28.70;27.60
4293;DHT22;2160;51.172;6.808;2023-06-04T17:53:47;28.60;28.20
4293;DHT22;2160;51.172;6.808;2023-06-04T17:56:14;28.40;27.60
4293;DHT22;2160;51.172;6.808;2023-06-04T17:58:41;28.10;28.60
4293;DHT22;2160;51.172;6.808;2023-06-04T18:01:08;28.00;28.30
4293;DHT22;2160;51.172;6.808;2023-06-04T18:03:35;27.90;29.00
4293;DHT22;2160;51.172;6.808;2023-06-04T18:06:03;27.80;28.90
4293;DHT22;2160;51.172;6.808;2023-06-04T18:08:35;27.70;28.90
4293;DHT22;2160;51.172;6.808;2023-06-04T18:11:02;27.80;28.80
4293;DHT22;2160;51.172;6.808;2023-06-04T18:13:29;27.70;28.60
4293;DHT22;2160;51.172;6.808;2023-06-04T18:15:56;27.70;29.60
4293;DHT22;2160;51.172;6.808;2023-06-04T18:18:23;27.50;29.20
4293;DHT22;2160;51.172;6.808;2023-06-04T18:20:50;27.40;29.00
4293;DHT22;2160;51.172;6.808;2023-06-04T18:23:17;27.40;29.80
4293;DHT22;2160;51.172;6.808;2023-06-04T18:25:45;27.20;29.50
4293;DHT22;2160;51.172;6.808;2023-06-04T18:28:13;27.00;28.80
4293;DHT22;2160;51.172;6.808;2023-06-04T18:30:41;26.90;28.70
4293;DHT22;2160;51.172;6.808;2023-06-04T18:33:08;26.80;29.80
4293;DHT22;2160;51.172;6.808;2023-06-04T18:35:35;26.70;29.80
4293;DHT22;2160;51.172;6.808;2023-06-04T18:38:02;26.70;29.50
4293;DHT22;2160;51.172;6.808;2023-06-04T18:40:29;26.60;29.70
4293;DHT22;2160;51.172;6.808;2023-06-04T18:42:58;26.70;30.20
4293;DHT22;2160;51.172;6.808;2023-06-04T18:45:25;26.50;30.00
4293;DHT22;2160;51.172;6.808;2023-06-04T18:47:52;26.40;31.40
4293;DHT22;2160;51.172;6.808;2023-06-04T18:50:18;26.40;30.00
4293;DHT22;2160;51.172;6.808;2023-06-04T18:52:45;26.40;30.40
4293;DHT22;2160;51.172;6.808;2023-06-04T18:55:12;26.40;31.40
4293;DHT22;2160;51.172;6.808;2023-06-04T18:57:41;26.30;30.20
4293;DHT22;2160;51.172;6.808;2023-06-04T19:00:11;26.40;30.20
4293;DHT22;2160;51.172;6.808;2023-06-04T19:02:38;26.30;30.20
4293;DHT22;2160;51.172;6.808;2023-06-04T19:05:07;26.30;30.40
4293;DHT22;2160;51.172;6.808;2023-06-04T19:07:36;26.30;30.40
4293;DHT22;2160;51.172;6.808;2023-06-04T19:10:03;26.30;30.60
4293;DHT22;2160;51.172;6.808;2023-06-04T19:12:30;26.10;31.80
4293;DHT22;2160;51.172;6.808;2023-06-04T19:14:57;26.10;31.70
4293;DHT22;2160;51.172;6.808;2023-06-04T19:17:26;26.00;32.20
4293;DHT22;2160;51.172;6.808;2023-06-04T19:19:54;26.00;33.00
4293;DHT22;2160;51.172;6.808;2023-06-04T19:22:21;26.00;32.10
4293;DHT22;2160;51.172;6.808;2023-06-04T19:24:48;26.10;34.00
4293;DHT22;2160;51.172;6.808;2023-06-04T19:27:15;26.10;34.60
4293;DHT22;2160;51.172;6.808;2023-06-04T19:29:43;26.10;34.70
4293;DHT22;2160;51.172;6.808;2023-06-04T19:32:11;26.00;34.90
4293;DHT22;2160;51.172;6.808;2023-06-04T19:34:39;25.80;34.00
4293;DHT22;2160;51.172;6.808;2023-06-04T19:37:07;25.60;34.50
4293;DHT22;2160;51.172;6.808;2023-06-04T19:39:34;25.60;35.50
4293;DHT22;2160;51.172;6.808;2023-06-04T19:42:01;25.50;34.90
4293;DHT22;2160;51.172;6.808;2023-06-04T19:44:28;25.50;33.80
4293;DHT22;2160;51.172;6.808;2023-06-04T19:46:54;25.50;34.50
4293;DHT22;2160;51.172;6.808;2023-06-04T19:49:21;25.40;36.20
4293;DHT22;2160;51.172;6.808;2023-06-04T19:51:50;25.20;34.70
4293;DHT22;2160;51.172;6.808;2023-06-04T19:54:17;25.20;34.80
4293;DHT22;2160;51.172;6.808;2023-06-04T19:56:44;25.20;36.00
4293;DHT22;2160;51.172;6.808;2023-06-04T19:59:11;25.10;35.20
4293;DHT22;2160;51.172;6.808;2023-06-04T20:01:38;25.10;35.10
4293;DHT22;2160;51.172;6.808;2023-06-04T20:04:04;24.90;37.10
4293;DHT22;2160;51.172;6.808;2023-06-04T20:06:32;24.90;36.20